Time;durP1;ratioP1;P1;durP2;ratioP2;P2;SDS_P1;SDS_P2;PMS_P1;PMS_P2;Temp;Humidity;BMP_temperature;BMP_pressure;BME280_temperature;BME280_humidity;BME280_pressure;Samples;Min_cycle;Max_cycle;Signal;HPM_P1;HPM_P2
2023/04/28 00:00:07;;;;;;;6.10;3.87;;;;;;;2.61;80.34;98087.88;6071877;29;20247;-44
2023/04/28 00:03:09;;;;;;;6.03;3.70;;;;;;;2.62;80.21;98092.13;6073202;29;20230;-50
2023/04/28 00:06:12;;;;;;;5.07;3.90;;;;;;;2.66;80.31;98089.94;6072928;29;20220;-47
2023/04/28 00:09:14;;;;;;;6.20;4.07;;;;;;;2.72;80.06;98083.97;6072407;29;20627;-46
2023/04/28 00:12:16;;;;;;;6.00;3.50;;;;;;;2.68;80.63;98080.06;6072507;29;20279;-49
2023/04/28 00:15:18;;;;;;;6.53;3.40;;;;;;;2.70;80.60;98080.69;6072288;29;20736;-47
2023/04/28 00:18:21;;;;;;;5.97;4.23;;;;;;;2.74;80.33;98074.88;6073114;29;20291;-49
2023/04/28 00:21:23;;;;;;;5.30;3.80;;;;;;;2.78;80.16;98075.34;6071419;29;20246;-48
2023/04/28 00:24:25;;;;;;;6.27;4.13;;;;;;;2.75;80.37;98068.63;6071748;29;20225;-47
2023/04/28 00:27:27;;;;;;;5.03;3.63;;;;;;;2.79;80.24;98076.97;6072278;29;20314;-48
2023/04/28 00:30:29;;;;;;;7.57;3.80;;;;;;;2.74;80.68;98074.88;6070829;29;20262;-46
2023/04/28 00:33:31;;;;;;;6.57;3.80;;;;;;;2.77;80.48;98073.72;6071246;29;20325;-46
2023/04/28 00:36:34;;;;;;;4.30;3.40;;;;;;;2.79;80.42;98075.16;6054317;29;20281;-46
2023/04/28 00:39:36;;;;;;;6.40;4.00;;;;;;;2.75;81.17;98073.88;6072170;29;20232;-48
2023/04/28 00:42:39;;;;;;;5.90;3.80;;;;;;;2.78;80.80;98059.56;6069270;29;20236;-50
2023/04/28 00:45:41;;;;;;;5.17;3.50;;;;;;;2.89;80.25;98059.09;6076909;29;20232;-49
2023/04/28 00:48:43;;;;;;;5.70;4.00;;;;;;;2.88;80.47;98064.53;6077467;29;20486;-51
2023/04/28 00:51:45;;;;;;;4.50;3.60;;;;;;;2.91;80.58;98056.28;6047043;29;20228;-46
2023/04/28 00:54:47;;;;;;;4.97;3.77;;;;;;;2.94;80.67;98054.09;6056161;29;20703;-50
2023/04/28 00:57:50;;;;;;;6.63;4.07;;;;;;;2.95;80.73;98050.44;6056351;29;20786;-51
2023/04/28 01:00:52;;;;;;;8.50;4.17;;;;;;;2.96;80.78;98053.94;6075467;29;20723;-50
2023/04/28 01:03:54;;;;;;;8.90;4.17;;;;;;;2.89;80.96;98050.38;6076606;29;20242;-49
2023/04/28 01:06:59;;;;;;;5.33;3.83;;;;;;;2.73;80.95;98025.09;6061227;29;20256;-51
2023/04/28 01:10:02;;;;;;;5.53;4.37;;;;;;;2.93;81.19;98054.28;6040129;29;20228;-50
2023/04/28 01:13:07;;;;;;;5.83;3.93;;;;;;;2.93;80.99;98049.03;6066679;29;20248;-51
2023/04/28 01:16:10;;;;;;;5.93;3.77;;;;;;;2.73;81.00;98018.00;6015124;29;1208238;-45
2023/04/28 01:19:21;;;;;;;5.37;3.60;;;;;;;2.79;81.35;98029.63;6077064;29;20318;-45
2023/04/28 01:22:24;;;;;;;4.70;3.77;;;;;;;2.88;81.71;98040.84;6059065;29;20240;-46
2023/04/28 01:25:26;;;;;;;9.73;3.83;;;;;;;2.87;81.60;98036.59;6075544;29;20240;-46
2023/04/28 01:28:28;;;;;;;5.43;4.10;;;;;;;2.93;81.22;98035.84;6059265;29;20243;-45
2023/04/28 01:31:30;;;;;;;7.83;4.03;;;;;;;2.84;81.08;98020.16;6067066;29;20252;-46
2023/04/28 01:34:32;;;;;;;5.80;3.80;;;;;;;2.90;81.26;98042.28;6060563;29;20335;-46
2023/04/28 01:37:34;;;;;;;8.87;4.00;;;;;;;2.87;81.46;98040.03;6044774;29;20227;-46
2023/04/28 01:40:36;;;;;;;5.83;3.77;;;;;;;2.89;81.34;98037.22;6062219;29;20734;-46
2023/04/28 01:43:38;;;;;;;4.00;3.60;;;;;;;2.88;81.28;98039.03;6058554;29;20765;-44
2023/04/28 01:46:40;;;;;;;7.30;3.70;;;;;;;2.87;81.33;98031.34;6058930;29;20254;-46
2023/04/28 01:49:43;;;;;;;5.43;4.60;;;;;;;2.81;81.42;98030.25;6075528;29;20796;-48
2023/04/28 01:52:45;;;;;;;8.97;4.53;;;;;;;2.78;81.53;98036.69;6075646;29;20236;-46
2023/04/28 01:55:47;;;;;;;6.70;4.20;;;;;;;2.80;81.72;98029.41;6075229;29;20239;-47
2023/04/28 01:58:51;;;;;;;7.63;4.30;;;;;;;2.81;81.48;98028.44;6075226;29;20323;-46
2023/04/28 02:01:53;;;;;;;8.67;4.43;;;;;;;2.80;81.30;98033.88;6074513;29;20296;-46
2023/04/28 02:04:56;;;;;;;7.20;4.37;;;;;;;2.73;81.83;98036.44;6065778;29;20333;-46
2023/04/28 02:07:59;;;;;;;8.77;4.60;;;;;;;2.67;82.02;98034.53;6074857;29;20232;-47
2023/04/28 02:11:02;;;;;;;8.30;4.60;;;;;;;2.64;81.88;98032.25;6057533;29;20238;-45
2023/04/28 02:14:04;;;;;;;5.17;4.37;;;;;;;2.64;81.86;98028.81;6073153;29;20307;-46
2023/04/28 02:17:06;;;;;;;4.93;3.80;;;;;;;2.65;82.19;98033.06;6077704;29;20231;-45
2023/04/28 02:20:09;;;;;;;7.30;4.40;;;;;;;2.64;82.02;98029.63;6056041;29;20238;-45
2023/04/28 02:23:12;;;;;;;4.77;4.10;;;;;;;2.61;82.09;98030.00;6062601;29;20235;-46
2023/04/28 02:26:14;;;;;;;6.00;3.67;;;;;;;2.57;82.39;98028.75;6074686;29;20235;-46
2023/04/28 02:29:16;;;;;;;6.70;4.27;;;;;;;2.63;82.38;98028.00;6074995;29;20243;-45
2023/04/28 02:32:18;;;;;;;7.03;4.07;;;;;;;2.55;82.27;98018.38;6074303;29;20256;-46
2023/04/28 02:35:20;;;;;;;7.50;4.07;;;;;;;2.56;82.35;98025.28;6060665;29;20236;-45
2023/04/28 02:38:22;;;;;;;7.93;4.13;;;;;;;2.53;82.65;98020.38;6074817;29;20267;-47
2023/04/28 02:41:25;;;;;;;8.57;4.60;;;;;;;2.49;82.59;98021.75;6073983;29;20321;-48
2023/04/28 02:44:27;;;;;;;5.47;3.97;;;;;;;2.47;82.80;98018.50;6074774;29;20232;-45
2023/04/28 02:47:29;;;;;;;5.20;3.60;;;;;;;2.39;82.65;98021.19;6057928;29;20243;-48
2023/04/28 02:50:31;;;;;;;7.60;5.27;;;;;;;2.36;82.93;98011.03;6061422;29;20238;-46
2023/04/28 02:53:33;;;;;;;6.53;4.53;;;;;;;2.31;82.80;98019.47;6059121;29;20295;-45
2023/04/28 02:56:36;;;;;;;5.90;4.30;;;;;;;2.28;83.55;98024.28;6073427;29;20283;-45
2023/04/28 02:59:38;;;;;;;5.97;4.50;;;;;;;2.30;82.97;98019.66;6059979;29;20254;-47
2023/04/28 03:02:40;;;;;;;7.37;4.17;;;;;;;2.23;83.44;98011.69;6065377;29;20259;-46
2023/04/28 03:05:43;;;;;;;7.27;4.00;;;;;;;2.21;83.38;98012.84;6073202;29;20233;-46
2023/04/28 03:08:45;;;;;;;16.10;4.53;;;;;;;2.05;83.49;97984.94;6073840;29;20244;-47
2023/04/28 03:11:47;;;;;;;7.13;4.37;;;;;;;2.26;83.35;97997.34;6062542;29;20229;-46
2023/04/28 03:14:49;;;;;;;5.20;4.20;;;;;;;2.28;83.53;97990.94;6056548;29;20249;-45
2023/04/28 03:17:51;;;;;;;4.90;4.13;;;;;;;2.28;83.02;97985.69;6064746;29;20250;-47
2023/04/28 03:20:53;;;;;;;6.87;4.53;;;;;;;2.24;83.31;97991.47;6056857;29;20721;-50
2023/04/28 03:23:55;;;;;;;7.93;4.07;;;;;;;2.17;83.39;97988.75;6074625;29;20249;-48
2023/04/28 03:26:57;;;;;;;6.07;4.60;;;;;;;2.09;83.36;97986.22;6064357;29;20244;-46
2023/04/28 03:29:59;;;;;;;5.47;4.60;;;;;;;2.09;83.61;97982.78;6065453;29;20279;-48
2023/04/28 03:33:01;;;;;;;7.70;4.73;;;;;;;2.03;83.76;97979.88;6073715;29;20291;-45
2023/04/28 03:36:04;;;;;;;5.90;4.60;;;;;;;1.97;84.28;97985.84;6045226;29;20281;-46
2023/04/28 03:39:06;;;;;;;6.07;4.87;;;;;;;1.94;84.54;97988.81;6052605;29;20809;-46
2023/04/28 03:42:08;;;;;;;5.63;4.83;;;;;;;1.91;84.46;97981.28;6053178;29;20301;-46
2023/04/28 03:45:10;;;;;;;5.43;4.93;;;;;;;1.91;84.60;97985.72;6073433;29;20228;-47
2023/04/28 03:48:12;;;;;;;7.13;4.80;;;;;;;1.90;84.72;97992.78;6056676;29;20776;-47
2023/04/28 03:51:15;;;;;;;6.67;4.27;;;;;;;1.90;84.72;97997.25;6063845;29;20227;-45
2023/04/28 03:54:17;;;;;;;7.87;5.13;;;;;;;1.88;84.46;98001.88;6055838;29;20222;-47
2023/04/28 03:57:19;;;;;;;6.90;4.77;;;;;;;1.88;84.67;97988.72;6061832;29;20221;-48
2023/04/28 04:00:21;;;;;;;6.63;4.90;;;;;;;1.90;84.83;97989.34;6063706;29;20425;-46
2023/04/28 04:03:26;;;;;;;9.97;5.00;;;;;;;1.88;84.67;97993.97;6060004;29;20233;-47
2023/04/28 04:06:31;;;;;;;9.03;5.30;;;;;;;1.85;85.16;97989.06;6073165;29;20321;-47
2023/04/28 04:09:33;;;;;;;9.97;4.90;;;;;;;1.89;85.26;97998.25;6071347;29;20613;-48
2023/04/28 04:12:35;;;;;;;6.77;5.40;;;;;;;1.91;85.51;97985.72;6054828;29;20245;-46
2023/04/28 04:15:37;;;;;;;7.20;4.70;;;;;;;1.94;85.37;97985.38;6073988;29;20268;-48
2023/04/28 04:18:40;;;;;;;7.10;5.20;;;;;;;1.99;85.68;97988.28;6062963;29;20241;-49
2023/04/28 04:22:02;;;;;;;5.40;4.80;;;;;;;1.83;85.64;97952.50;6080322;29;20385;-47
2023/04/28 04:25:05;;;;;;;8.50;4.97;;;;;;;2.13;85.75;97984.03;6064685;29;20239;-48
2023/04/28 04:28:08;;;;;;;6.57;5.23;;;;;;;2.19;85.65;97992.00;6071182;29;20260;-47
2023/04/28 04:31:11;;;;;;;5.73;4.83;;;;;;;2.26;85.39;97998.16;6063919;29;20271;-47
2023/04/28 04:34:13;;;;;;;7.93;4.63;;;;;;;2.29;85.39;97987.31;6063676;29;20234;-50
2023/04/28 04:37:16;;;;;;;5.93;4.90;;;;;;;2.40;85.46;97986.03;6081129;29;20252;-49
2023/04/28 04:40:25;;;;;;;9.17;5.37;;;;;;;2.44;85.25;97974.16;6071367;29;20242;-50
2023/04/28 04:43:28;;;;;;;6.37;4.77;;;;;;;2.49;85.23;97970.97;6067985;29;20243;-51
2023/04/28 04:46:31;;;;;;;6.60;4.80;;;;;;;2.58;84.86;97969.88;6070899;29;20253;-50
2023/04/28 04:49:33;;;;;;;14.07;5.07;;;;;;;2.64;84.82;97955.97;6064115;29;20242;-50
2023/04/28 04:52:36;;;;;;;10.00;4.50;;;;;;;2.73;84.86;97959.34;6066597;29;20234;-46
2023/04/28 04:55:38;;;;;;;5.57;4.97;;;;;;;2.72;84.90;97947.19;6063395;29;20228;-45
2023/04/28 04:58:45;;;;;;;7.27;4.50;;;;;;;2.90;84.60;97963.34;6065623;29;20253;-47
2023/04/28 05:02:07;;;;;;;6.87;4.43;;;;;;;2.64;84.70;97905.19;6081243;29;20787;-46
2023/04/28 05:05:10;;;;;;;6.47;4.23;;;;;;;3.06;84.38;97965.78;6085237;29;20232;-43
2023/04/28 05:08:27;;;;;;;6.77;4.70;;;;;;;3.16;83.99;97960.22;6063412;29;20243;-46
2023/04/28 05:11:31;;;;;;;5.13;4.03;;;;;;;3.31;83.48;97950.44;6077499;29;20699;-46
2023/04/28 05:14:33;;;;;;;4.90;4.30;;;;;;;3.41;83.38;97952.75;6079387;29;20338;-46
2023/04/28 05:17:35;;;;;;;8.10;4.87;;;;;;;3.26;83.45;97920.41;6061145;29;20267;-46
2023/04/28 05:20:37;;;;;;;6.60;4.47;;;;;;;3.56;82.73;97947.41;6079952;29;20243;-46
2023/04/28 05:23:39;;;;;;;4.43;3.97;;;;;;;3.72;82.58;97949.75;6070594;29;20248;-46
2023/04/28 05:26:42;;;;;;;5.50;4.43;;;;;;;3.84;81.78;97952.66;6063635;29;20247;-45
2023/04/28 05:29:44;;;;;;;8.43;4.10;;;;;;;3.94;81.00;97953.16;6077418;29;20246;-47
2023/04/28 05:32:47;;;;;;;10.47;4.60;;;;;;;4.11;81.33;97951.84;6067539;29;20243;-46
2023/04/28 05:35:49;;;;;;;8.70;3.90;;;;;;;4.21;80.27;97943.56;6076179;29;20246;-50
2023/04/28 05:38:51;;;;;;;6.90;3.73;;;;;;;4.37;80.28;97945.06;6061878;29;20342;-46
2023/04/28 05:41:54;;;;;;;4.10;3.43;;;;;;;4.54;80.19;97953.47;6066698;29;20375;-46
2023/04/28 05:44:56;;;;;;;5.23;3.80;;;;;;;4.66;79.89;97952.72;6076025;29;20233;-46
2023/04/28 05:47:58;;;;;;;4.83;3.63;;;;;;;4.81;80.02;97949.91;6060284;29;20247;-47
2023/04/28 05:51:01;;;;;;;5.60;3.80;;;;;;;4.98;80.05;97950.41;6058107;29;20259;-46
2023/04/28 05:54:03;;;;;;;5.00;3.70;;;;;;;5.15;80.20;97956.09;6059798;29;20228;-49
2023/04/28 05:57:10;;;;;;;4.50;3.30;;;;;;;5.35;80.11;97959.59;6058352;29;20218;-47
2023/04/28 06:00:14;;;;;;;5.07;3.60;;;;;;;5.55;79.32;97948.22;6075105;29;20221;-46
2023/04/28 06:03:17;;;;;;;6.83;3.53;;;;;;;5.68;79.29;97950.88;6043138;29;20236;-45
2023/04/28 06:06:21;;;;;;;9.40;4.13;;;;;;;5.81;78.15;97950.88;6075500;29;20232;-47
2023/04/28 06:09:23;;;;;;;4.93;4.17;;;;;;;5.95;78.34;97957.78;6075390;29;20316;-47
2023/04/28 06:12:27;;;;;;;4.83;3.77;;;;;;;6.09;78.09;97950.66;6059368;29;20229;-47
2023/04/28 06:15:29;;;;;;;6.93;4.27;;;;;;;6.19;77.80;97951.03;6062455;29;20757;-46
2023/04/28 06:18:31;;;;;;;5.30;3.80;;;;;;;6.13;77.49;97932.56;6059099;29;20320;-47
2023/04/28 06:21:35;;;;;;;5.23;3.93;;;;;;;6.49;77.18;97941.81;6060022;29;20241;-48
2023/04/28 06:24:40;;;;;;;6.00;3.90;;;;;;;6.67;76.65;97942.75;6074968;29;20250;-48
2023/04/28 06:27:45;;;;;;;6.80;3.97;;;;;;;6.86;76.00;97937.59;6065406;29;20714;-48
2023/04/28 06:30:47;;;;;;;8.43;3.83;;;;;;;7.01;75.43;97934.66;6065262;29;20245;-47
2023/04/28 06:33:50;;;;;;;6.43;4.07;;;;;;;7.18;75.00;97936.56;6073726;29;20562;-47
2023/04/28 06:36:52;;;;;;;6.43;3.37;;;;;;;7.37;75.39;97934.00;6075760;29;20239;-48
2023/04/28 06:39:54;;;;;;;6.43;3.73;;;;;;;7.57;74.12;97939.16;6056427;29;20230;-48
2023/04/28 06:42:58;;;;;;;5.27;3.67;;;;;;;7.80;72.96;97928.78;6073337;29;20364;-51
2023/04/28 06:46:14;;;;;;;4.73;4.03;;;;;;;8.01;72.04;97930.22;6065539;29;20727;-50
2023/04/28 06:49:16;;;;;;;4.03;3.40;;;;;;;8.41;72.61;97927.19;6065023;29;20242;-46
2023/04/28 06:52:20;;;;;;;4.63;3.70;;;;;;;8.89;70.73;97929.84;6074143;29;20280;-48
2023/04/28 06:55:34;;;;;;;4.93;3.50;;;;;;;9.30;69.09;97917.63;6057785;29;20268;-47
2023/04/28 06:58:36;;;;;;;4.27;3.43;;;;;;;9.47;66.39;97910.63;6058017;29;20623;-48
2023/04/28 07:01:38;;;;;;;6.73;3.97;;;;;;;9.77;67.00;97907.88;6073912;29;20237;-49
2023/04/28 07:04:41;;;;;;;4.27;3.20;;;;;;;10.18;64.08;97908.78;6074003;29;20313;-47
2023/04/28 07:07:44;;;;;;;5.33;3.60;;;;;;;10.45;61.68;97911.00;6073757;29;20312;-48
2023/04/28 07:10:46;;;;;;;5.43;3.60;;;;;;;10.59;62.40;97907.81;6071856;29;20232;-48
2023/04/28 07:13:50;;;;;;;7.80;3.70;;;;;;;10.87;56.03;97900.88;6073352;29;20377;-49
2023/04/28 07:16:52;;;;;;;6.70;3.57;;;;;;;11.18;57.78;97890.75;6071501;29;20286;-48
2023/04/28 07:19:54;;;;;;;5.27;3.50;;;;;;;11.43;54.57;97893.88;6074197;29;20691;-49
2023/04/28 07:22:56;;;;;;;5.77;3.17;;;;;;;11.55;53.88;97888.47;6072424;29;20332;-47
2023/04/28 07:25:58;;;;;;;4.90;2.80;;;;;;;11.76;55.04;97886.91;6072427;29;20369;-48
2023/04/28 07:29:01;;;;;;;4.57;2.70;;;;;;;11.92;54.79;97886.13;6074558;29;20276;-48
2023/04/28 07:32:04;;;;;;;5.47;3.07;;;;;;;12.01;51.45;97889.97;6069597;29;20236;-48
2023/04/28 07:35:08;;;;;;;5.33;2.87;;;;;;;12.31;49.68;97888.78;6074098;29;20249;-49
2023/04/28 07:38:11;;;;;;;5.27;2.80;;;;;;;12.65;50.81;97884.13;6072841;29;20755;-52
2023/04/28 07:41:13;;;;;;;8.70;2.90;;;;;;;12.92;48.18;97886.84;6070974;29;20338;-47
2023/04/28 07:44:15;;;;;;;4.00;3.10;;;;;;;13.07;47.24;97892.34;6072106;29;20241;-51
2023/04/28 07:47:17;;;;;;;5.70;2.93;;;;;;;13.06;47.55;97881.91;6072730;29;20249;-48
2023/04/28 07:50:19;;;;;;;7.00;3.20;;;;;;;12.96;48.13;97890.63;6072996;29;20253;-47
2023/04/28 07:53:22;;;;;;;6.43;3.30;;;;;;;13.16;47.88;97895.38;6073314;29;20272;-47
2023/04/28 07:56:24;;;;;;;5.77;3.20;;;;;;;13.38;47.32;97898.78;6073239;29;20265;-49
2023/04/28 07:59:26;;;;;;;5.47;3.53;;;;;;;13.55;45.31;97905.91;6071304;29;20232;-47
2023/04/28 08:02:28;;;;;;;4.47;3.20;;;;;;;13.41;47.26;97892.16;6073235;29;20236;-51
2023/04/28 08:05:31;;;;;;;7.20;3.47;;;;;;;13.46;46.29;97894.88;6072835;29;20318;-50
2023/04/28 08:08:33;;;;;;;9.03;2.90;;;;;;;13.42;46.75;97896.44;6072560;29;20263;-49
2023/04/28 08:11:35;;;;;;;6.53;3.10;;;;;;;13.40;45.58;97885.19;6071536;29;20666;-51
2023/04/28 08:14:38;;;;;;;5.47;3.30;;;;;;;13.22;47.04;97889.03;6074032;29;20248;-47
2023/04/28 08:17:40;;;;;;;5.17;3.40;;;;;;;13.23;46.63;97889.84;6072122;29;20243;-50
2023/04/28 08:20:42;;;;;;;4.60;3.00;;;;;;;13.22;47.04;97889.03;6072557;29;20606;-48
2023/04/28 08:23:45;;;;;;;6.60;3.10;;;;;;;13.28;47.85;97887.19;6073111;29;20375;-48
2023/04/28 08:26:47;;;;;;;6.17;3.40;;;;;;;13.38;48.60;97865.88;6071316;29;20920;-47
2023/04/28 08:29:49;;;;;;;4.03;3.03;;;;;;;13.73;46.76;97880.59;6071753;29;20242;-49
2023/04/28 08:32:51;;;;;;;6.23;3.33;;;;;;;13.78;46.58;97880.63;6055635;29;20326;-48
2023/04/28 08:35:54;;;;;;;4.80;3.57;;;;;;;13.82;46.09;97863.81;6069869;29;20319;-49
2023/04/28 08:38:58;;;;;;;6.03;2.83;;;;;;;13.92;49.10;97855.03;6072591;29;20388;-50
2023/04/28 08:42:03;;;;;;;4.60;3.33;;;;;;;14.03;44.59;97864.72;6069445;29;20618;-48
2023/04/28 08:45:06;;;;;;;4.20;2.80;;;;;;;13.80;44.86;97863.25;6059169;29;20259;-48
2023/04/28 08:48:28;;;;;;;7.03;3.43;;;;;;;13.85;45.72;97865.16;6061023;29;20251;-47
2023/04/28 08:51:35;;;;;;;5.90;3.23;;;;;;;14.02;45.10;97859.63;6060254;29;20728;-51
2023/04/28 08:54:40;;;;;;;6.60;3.10;;;;;;;13.98;45.49;97843.28;6067517;29;20236;-49
2023/04/28 08:57:44;;;;;;;6.87;3.27;;;;;;;14.39;43.60;97851.53;6071968;29;20759;-51
2023/04/28 09:00:46;;;;;;;4.83;3.00;;;;;;;14.25;44.22;97837.78;6071549;29;20239;-49
2023/04/28 09:03:48;;;;;;;4.77;2.80;;;;;;;14.27;47.11;97843.69;6071600;29;20243;-48
2023/04/28 09:06:51;;;;;;;5.23;3.23;;;;;;;14.57;43.99;97843.03;6066007;29;20246;-51
2023/04/28 09:10:23;;;;;;;5.97;2.83;;;;;;;14.65;44.60;97836.34;6074426;29;20263;-48
2023/04/28 09:13:25;;;;;;;5.17;3.00;;;;;;;14.93;45.93;97832.41;6076263;29;20244;-48
2023/04/28 09:16:40;;;;;;;4.70;2.67;;;;;;;15.36;44.88;97832.97;6078128;29;20771;-51
2023/04/28 09:19:42;;;;;;;4.90;3.00;;;;;;;15.07;43.11;97824.63;6059926;29;20241;-50
2023/04/28 09:22:44;;;;;;;5.10;2.83;;;;;;;15.41;43.25;97828.38;6076304;29;20235;-48
2023/04/28 09:25:58;;;;;;;5.17;2.83;;;;;;;15.54;42.50;97816.31;6075922;29;20643;-51
2023/04/28 09:29:12;;;;;;;3.50;2.70;;;;;;;15.83;42.56;97813.88;6076366;29;20233;-51
2023/04/28 09:32:18;;;;;;;4.57;2.33;;;;;;;15.93;42.21;97813.84;6073718;29;20266;-50
2023/04/28 09:35:38;;;;;;;3.90;2.87;;;;;;;16.09;41.66;97809.22;6076166;29;20236;-52
2023/04/28 09:38:44;;;;;;;3.83;2.80;;;;;;;16.06;41.50;97796.38;6074939;29;20240;-51
2023/04/28 09:41:46;;;;;;;5.23;2.70;;;;;;;15.89;42.06;97788.59;6075592;29;20232;-49
2023/04/28 09:44:56;;;;;;;4.23;2.77;;;;;;;16.27;43.60;97785.53;6075007;29;20235;-51
2023/04/28 09:48:09;;;;;;;5.83;2.33;;;;;;;16.51;40.34;97757.69;6075326;29;20243;-51
2023/04/28 09:51:20;;;;;;;3.23;2.27;;;;;;;16.52;40.46;97750.44;6074658;29;20237;-52
2023/04/28 09:54:25;;;;;;;4.60;2.13;;;;;;;16.69;40.15;97750.84;6076021;29;20636;-48
2023/04/28 09:57:33;;;;;;;3.57;2.43;;;;;;;16.81;39.73;97747.84;6075981;29;20232;-48
2023/04/28 10:00:38;;;;;;;4.87;2.57;;;;;;;16.47;40.97;97737.03;6075354;29;20236;-52
2023/04/28 10:03:40;;;;;;;4.20;2.90;;;;;;;16.46;41.15;97732.72;6077085;29;20260;-51
2023/04/28 10:06:43;;;;;;;3.63;2.70;;;;;;;16.67;40.73;97728.00;6075274;29;20779;-52
2023/04/28 10:09:49;;;;;;;4.57;2.47;;;;;;;16.65;40.31;97730.16;6073407;29;20733;-47
2023/04/28 10:12:51;;;;;;;6.90;2.90;;;;;;;16.73;40.34;97724.22;6075205;29;20663;-48
2023/04/28 10:15:54;;;;;;;6.33;2.50;;;;;;;16.54;40.93;97721.38;6073874;29;20548;-49
2023/04/28 10:18:56;;;;;;;5.73;2.47;;;;;;;16.65;40.61;97730.16;6076145;29;20243;-48
2023/04/28 10:22:11;;;;;;;3.53;2.73;;;;;;;16.75;40.65;97720.19;6076462;29;20251;-49
2023/04/28 10:25:34;;;;;;;3.60;2.30;;;;;;;16.91;40.56;97715.47;6075021;29;20240;-47
2023/04/28 10:28:36;;;;;;;3.87;2.40;;;;;;;16.96;40.02;97714.63;6073701;29;20244;-49
2023/04/28 10:32:14;;;;;;;2.97;2.50;;;;;;;16.80;41.35;97713.13;6074545;29;20228;-48
2023/04/28 10:35:28;;;;;;;4.17;2.10;;;;;;;16.80;42.75;97715.81;6074432;29;20264;-48
2023/04/28 10:38:30;;;;;;;3.77;2.60;;;;;;;17.12;41.20;97707.22;6074096;29;20639;-48
2023/04/28 10:41:32;;;;;;;6.10;3.10;;;;;;;17.28;41.41;97703.31;6075319;29;20338;-48
2023/04/28 10:44:34;;;;;;;3.27;2.80;;;;;;;17.41;41.09;97697.25;6074448;29;20251;-48
2023/04/28 10:48:03;;;;;;;6.70;3.00;;;;;;;17.53;40.38;97694.16;6075104;29;20263;-48
2023/04/28 10:51:14;;;;;;;7.77;3.13;;;;;;;17.33;41.94;97691.69;6073192;29;20252;-47
2023/04/28 10:54:18;;;;;;;4.37;2.60;;;;;;;17.30;40.02;97700.34;6077865;29;20264;-50
2023/04/28 10:57:20;;;;;;;7.50;2.57;;;;;;;17.18;41.00;97692.63;6059945;29;20226;-50
2023/04/28 11:00:29;;;;;;;4.50;2.60;;;;;;;17.03;41.12;97697.06;6077907;29;20232;-46
2023/04/28 11:03:46;;;;;;;4.10;2.67;;;;;;;16.96;41.35;97695.81;6074181;29;20584;-49
2023/04/28 11:07:09;;;;;;;2.40;2.13;;;;;;;16.88;41.80;97691.03;6074335;29;20872;-47
2023/04/28 11:10:11;;;;;;;3.63;2.10;;;;;;;16.84;42.51;97684.59;6072947;29;20260;-47
2023/04/28 11:13:32;;;;;;;4.20;2.50;;;;;;;16.70;43.27;97679.84;6073100;29;20254;-50
2023/04/28 11:16:50;;;;;;;5.00;2.57;;;;;;;16.69;42.58;97678.22;6073087;29;20284;-48
2023/04/28 11:19:55;;;;;;;6.23;2.63;;;;;;;16.61;41.86;97641.19;6072800;29;20250;-48
2023/04/28 11:22:58;;;;;;;3.63;2.20;;;;;;;16.79;42.68;97663.91;6073468;29;20240;-47
2023/04/28 11:26:00;;;;;;;3.83;2.57;;;;;;;17.09;40.52;97659.34;6071035;29;20251;-47
2023/04/28 11:29:02;;;;;;;4.80;2.10;;;;;;;17.08;42.05;97650.47;6068668;29;20240;-48
2023/04/28 11:32:07;;;;;;;2.67;1.90;;;;;;;17.18;42.94;97654.94;6073342;29;20223;-48
2023/04/28 11:35:09;;;;;;;5.50;2.53;;;;;;;17.36;40.29;97642.66;6071938;29;20235;-49
2023/04/28 11:38:11;;;;;;;3.20;2.37;;;;;;;17.69;40.44;97649.00;6074404;29;20238;-48
2023/04/28 11:41:13;;;;;;;3.40;2.70;;;;;;;17.91;39.55;97618.81;6073083;29;20236;-49
2023/04/28 11:44:19;;;;;;;3.43;2.50;;;;;;;17.93;40.04;97632.78;6073731;29;20277;-48
2023/04/28 11:47:31;;;;;;;6.40;2.57;;;;;;;17.92;38.80;97632.00;6074506;29;20292;-49
2023/04/28 11:50:37;;;;;;;5.93;2.47;;;;;;;17.66;39.65;97628.00;6071449;29;20240;-50
2023/04/28 11:53:45;;;;;;;3.80;2.00;;;;;;;17.58;40.20;97625.94;6073236;29;20239;-48
2023/04/28 11:56:47;;;;;;;3.03;2.20;;;;;;;17.56;40.12;97628.13;6070965;29;20240;-49
2023/04/28 11:59:49;;;;;;;2.67;2.27;;;;;;;17.60;41.03;97629.97;6072932;29;20711;-46
2023/04/28 12:02:52;;;;;;;2.83;2.27;;;;;;;17.68;39.36;97632.00;6072785;29;20239;-48
2023/04/28 12:05:54;;;;;;;3.37;2.20;;;;;;;17.57;39.21;97625.16;6073075;29;20236;-48
2023/04/28 12:09:01;;;;;;;3.07;2.30;;;;;;;17.54;40.36;97631.94;6073611;29;20224;-48
2023/04/28 12:12:05;;;;;;;2.03;1.83;;;;;;;17.57;40.30;97635.13;6071843;29;20232;-48
2023/04/28 12:15:08;;;;;;;5.43;2.13;;;;;;;17.51;40.96;97640.56;6072856;29;20263;-47
2023/04/28 12:18:11;;;;;;;3.53;2.70;;;;;;;17.22;39.49;97645.22;6075902;29;20255;-50
2023/04/28 12:21:20;;;;;;;5.10;2.40;;;;;;;16.72;41.53;97644.63;6069404;29;20307;-49
2023/04/28 12:24:24;;;;;;;3.60;2.20;;;;;;;16.38;42.83;97655.34;6072019;29;20372;-50
2023/04/28 12:27:27;;;;;;;3.53;2.40;;;;;;;16.43;42.95;97655.28;6071636;29;20374;-50
2023/04/28 12:30:32;;;;;;;2.70;2.20;;;;;;;16.34;43.65;97656.97;6071866;29;20286;-47
2023/04/28 12:33:36;;;;;;;3.57;2.33;;;;;;;16.40;42.97;97664.75;6071624;29;20327;-48
2023/04/28 12:36:39;;;;;;;3.43;2.20;;;;;;;16.30;42.99;97672.03;6072601;29;20245;-47
2023/04/28 12:39:41;;;;;;;3.37;2.40;;;;;;;16.06;43.22;97640.50;6074310;29;20251;-48
2023/04/28 12:42:44;;;;;;;4.37;2.27;;;;;;;16.22;43.30;97660.81;6076843;29;20252;-49
2023/04/28 12:45:46;;;;;;;3.93;2.43;;;;;;;16.25;43.37;97656.75;6061221;29;20240;-47
2023/04/28 12:48:48;;;;;;;3.17;2.23;;;;;;;16.36;42.69;97657.50;6076719;29;20716;-48
2023/04/28 12:51:50;;;;;;;5.50;2.10;;;;;;;16.14;43.74;97660.59;6078099;29;20268;-47
2023/04/28 12:54:52;;;;;;;3.90;2.10;;;;;;;16.10;43.12;97654.97;6079342;29;20602;-48
2023/04/28 12:57:55;;;;;;;7.17;2.67;;;;;;;15.83;42.72;97657.28;6077002;29;20618;-48
2023/04/28 13:00:57;;;;;;;2.43;2.17;;;;;;;15.46;44.64;97655.75;6078674;29;20284;-48
2023/04/28 13:03:59;;;;;;;4.17;2.50;;;;;;;15.45;44.68;97659.53;6075983;29;20242;-48
2023/04/28 13:07:01;;;;;;;6.30;2.20;;;;;;;15.44;45.05;97650.69;6076257;29;20235;-48
2023/04/28 13:10:04;;;;;;;4.87;2.30;;;;;;;15.32;44.51;97652.88;6074988;29;20783;-49
2023/04/28 13:13:06;;;;;;;2.80;2.47;;;;;;;15.38;44.01;97651.78;6077309;29;20676;-49
2023/04/28 13:16:08;;;;;;;3.87;2.13;;;;;;;15.21;45.12;97646.69;6075923;29;20239;-49
2023/04/28 13:19:12;;;;;;;3.63;2.30;;;;;;;15.23;45.89;97652.63;6074744;29;20251;-48
2023/04/28 13:22:14;;;;;;;7.03;2.57;;;;;;;15.17;46.20;97640.31;6073763;29;20267;-49
2023/04/28 13:25:16;;;;;;;2.43;1.97;;;;;;;15.28;46.06;97649.13;6075929;29;20243;-48
2023/04/28 13:28:19;;;;;;;3.70;2.30;;;;;;;15.18;45.85;97652.63;6077198;29;20242;-47
2023/04/28 13:31:21;;;;;;;3.30;2.30;;;;;;;15.03;45.11;97628.53;6076892;29;20307;-47
2023/04/28 13:34:23;;;;;;;2.93;2.40;;;;;;;15.02;45.75;97648.34;6075642;29;20319;-48
2023/04/28 13:37:25;;;;;;;4.10;2.47;;;;;;;14.83;46.40;97642.78;6078945;29;20330;-48
2023/04/28 13:40:27;;;;;;;4.97;2.30;;;;;;;14.71;47.16;97643.03;6063736;29;20247;-48
2023/04/28 13:43:30;;;;;;;3.60;1.90;;;;;;;14.76;48.30;97649.47;6055333;29;20236;-51
2023/04/28 13:46:32;;;;;;;5.63;2.47;;;;;;;14.57;49.25;97625.06;6063805;29;20614;-47
2023/04/28 13:49:36;;;;;;;4.67;3.00;;;;;;;14.68;49.10;97635.53;6062519;29;20876;-49
2023/04/28 13:52:38;;;;;;;4.37;2.83;;;;;;;14.74;49.60;97641.69;6074811;29;20641;-48
2023/04/28 13:55:40;;;;;;;8.80;3.73;;;;;;;14.60;48.96;97635.28;6076604;29;20739;-47
2023/04/28 13:58:42;;;;;;;2.43;2.20;;;;;;;14.33;50.97;97638.97;6075829;29;20239;-48
2023/04/28 14:01:44;;;;;;;3.20;2.53;;;;;;;14.33;49.84;97632.81;6080669;29;20244;-48
2023/04/28 14:04:49;;;;;;;5.10;2.73;;;;;;;14.23;50.26;97628.22;6075692;29;20746;-47
2023/04/28 14:07:55;;;;;;;3.80;2.50;;;;;;;14.23;51.83;97625.56;6063594;29;20653;-50
2023/04/28 14:10:57;;;;;;;3.70;2.63;;;;;;;14.23;54.17;97638.16;6068577;29;20259;-48
2023/04/28 14:14:00;;;;;;;2.83;2.40;;;;;;;14.18;53.13;97630.91;6073266;29;20609;-48
2023/04/28 14:17:03;;;;;;;3.90;2.10;;;;;;;14.21;54.17;97622.34;6074393;29;20744;-51
2023/04/28 14:20:06;;;;;;;3.10;2.10;;;;;;;14.26;54.63;97625.03;6074832;29;20236;-49
2023/04/28 14:23:08;;;;;;;3.77;2.60;;;;;;;14.23;55.31;97624.75;6075247;29;20330;-48
2023/04/28 14:26:10;;;;;;;3.13;2.33;;;;;;;14.25;55.94;97625.31;6074471;29;20247;-51
2023/04/28 14:29:12;;;;;;;3.43;2.67;;;;;;;14.24;51.84;97627.19;6074865;29;20851;-47